Aviation Digital Data Service (ADDS)

Output produced by METARs form (2055 UTC 24 April 2018)
found at http://aviationweather.gov/adds/metars/
 
KBPT 241953Z 29004KT 10SM CLR 28/13 A3002 RMK AO2 SLP164 T02780128